Time;durP1;ratioP1;P1;durP2;ratioP2;P2;SDS_P1;SDS_P2;PMS_P1;PMS_P2;Temp;Humidity;BMP_temperature;BMP_pressure;BME280_temperature;BME280_humidity;BME280_pressure;Samples;Min_cycle;Max_cycle;Signal;HPM_P1;HPM_P2
2023/06/22 00:00:13;;;;;;;;;;;;;;;22.29;69.16;99809.63;1085712;47;20022;-85
2023/06/22 00:01:17;;;;;;;;;;;;;;;22.24;68.43;99811.41;1086491;54;19972;-84
2023/06/22 00:02:17;;;;;;;;;;;;;;;22.24;68.34;99817.66;1085668;47;19938;-81
2023/06/22 00:03:22;;;;;;;;;;;;;;;22.31;68.21;99827.63;1086134;39;20800;-82
2023/06/22 00:04:22;;;;;;;;;;;;;;;22.34;67.98;99827.19;1085370;54;19946;-82
2023/06/22 00:05:29;;;;;;;;;;;;;;;22.37;67.82;99833.00;1085931;47;20048;-82
2023/06/22 00:06:29;;;;;;;;;;;;;;;22.39;67.77;99830.03;1086341;47;19970;-79
2023/06/22 00:07:33;;;;;;;;;;;;;;;22.37;68.76;99830.28;1086205;54;19950;-81
2023/06/22 00:08:33;;;;;;;;;;;;;;;22.36;67.54;99831.34;1085885;54;19951;-80
2023/06/22 00:09:37;;;;;;;;;;;;;;;22.22;68.87;99819.75;1085345;47;19946;-81
2023/06/22 00:10:38;;;;;;;;;;;;;;;22.14;68.55;99820.06;1085525;54;19981;-81
2023/06/22 00:11:42;;;;;;;;;;;;;;;22.13;68.42;99821.13;1085938;54;19946;-80
2023/06/22 00:12:43;;;;;;;;;;;;;;;22.18;68.49;99813.13;1085564;47;19957;-82
2023/06/22 00:13:47;;;;;;;;;;;;;;;22.18;68.50;99813.13;1086079;54;19950;-82
2023/06/22 00:14:48;;;;;;;;;;;;;;;22.21;68.14;99801.78;1086248;47;19972;-82
2023/06/22 00:15:52;;;;;;;;;;;;;;;22.24;68.30;99801.31;1086908;54;19950;-83
2023/06/22 00:16:57;;;;;;;;;;;;;;;22.18;68.26;99804.97;1086780;46;20773;-84
2023/06/22 00:18:00;;;;;;;;;;;;;;;22.16;68.88;99807.06;1086832;47;19958;-84
2023/06/22 00:19:03;;;;;;;;;;;;;;;22.12;68.78;99803.13;1086321;47;19946;-82
2023/06/22 00:20:10;;;;;;;;;;;;;;;22.13;68.99;99797.47;1086108;54;19958;-80
2023/06/22 00:21:13;;;;;;;;;;;;;;;22.12;69.83;99794.97;1086068;54;19943;-82
2023/06/22 00:22:17;;;;;;;;;;;;;;;22.10;69.25;99794.38;1087545;39;20561;-83
2023/06/22 00:23:18;;;;;;;;;;;;;;;22.08;69.29;99786.44;1086540;46;19942;-84
2023/06/22 00:24:22;;;;;;;;;;;;;;;22.06;69.52;99787.72;1086477;54;19953;-82
2023/06/22 00:25:22;;;;;;;;;;;;;;;22.05;69.25;99786.91;1086013;47;19954;-82
2023/06/22 00:26:26;;;;;;;;;;;;;;;22.04;69.25;99787.97;1086367;47;19951;-81
2023/06/22 00:27:27;;;;;;;;;;;;;;;22.01;69.35;99795.75;1086306;46;19951;-83
2023/06/22 00:28:31;;;;;;;;;;;;;;;22.06;69.32;99787.72;1086182;54;19973;-82
2023/06/22 00:29:32;;;;;;;;;;;;;;;22.04;69.34;99789.84;1086602;47;19964;-83
2023/06/22 00:30:36;;;;;;;;;;;;;;;22.12;68.78;99786.78;1086273;47;20058;-81
2023/06/22 00:31:37;;;;;;;;;;;;;;;22.17;69.30;99789.69;1086225;54;20030;-82
2023/06/22 00:32:41;;;;;;;;;;;;;;;22.19;69.33;99790.28;1086049;46;20045;-81
2023/06/22 00:33:42;;;;;;;;;;;;;;;22.25;68.91;99796.69;1086099;47;19938;-82
2023/06/22 00:34:45;;;;;;;;;;;;;;;22.28;68.90;99798.97;1086058;47;20777;-84
2023/06/22 00:35:46;;;;;;;;;;;;;;;22.25;69.09;99803.00;1084886;54;20094;-80
2023/06/22 00:36:52;;;;;;;;;;;;;;;22.31;68.73;99801.25;1084471;47;20826;-82
2023/06/22 00:38:00;;;;;;;;;;;;;;;22.33;68.12;99806.44;1084455;47;19950;-81
2023/06/22 00:39:05;;;;;;;;;;;;;;;22.29;68.59;99808.81;1084270;47;20446;-82
2023/06/22 00:40:07;;;;;;;;;;;;;;;22.33;68.18;99814.63;1084492;47;19950;-82
2023/06/22 00:41:12;;;;;;;;;;;;;;;22.36;67.97;99808.72;1084561;54;19946;-80
2023/06/22 00:42:14;;;;;;;;;;;;;;;22.39;68.08;99809.09;1084709;54;19972;-83
2023/06/22 00:43:18;;;;;;;;;;;;;;;22.40;68.26;99816.25;1084211;54;19953;-83
2023/06/22 00:44:19;;;;;;;;;;;;;;;22.39;68.10;99813.69;1084505;46;19951;-83
2023/06/22 00:45:23;;;;;;;;;;;;;;;22.34;68.40;99808.13;1084598;47;19950;-81
2023/06/22 00:46:28;;;;;;;;;;;;;;;22.34;68.27;99810.84;1084248;47;19958;-80
2023/06/22 00:47:29;;;;;;;;;;;;;;;22.37;68.35;99805.75;1084515;54;19977;-79
2023/06/22 00:48:33;;;;;;;;;;;;;;;22.38;68.16;99812.06;1084160;54;19958;-81
2023/06/22 00:49:35;;;;;;;;;;;;;;;22.39;68.27;99810.97;1084680;47;19951;-82
2023/06/22 00:50:38;;;;;;;;;;;;;;;22.39;68.37;99813.69;1084521;54;19947;-82
2023/06/22 00:51:47;;;;;;;;;;;;;;;22.42;67.78;99818.72;1084369;54;20016;-79
2023/06/22 00:52:56;;;;;;;;;;;;;;;22.42;67.96;99827.75;1084515;54;19953;-81
2023/06/22 00:53:57;;;;;;;;;;;;;;;22.36;68.32;99830.50;1084189;54;20294;-80
2023/06/22 00:55:02;;;;;;;;;;;;;;;22.35;67.95;99828.84;1084205;47;19995;-80
2023/06/22 00:56:03;;;;;;;;;;;;;;;22.35;68.18;99828.84;1084485;47;20571;-82
2023/06/22 00:57:11;;;;;;;;;;;;;;;22.30;68.38;99837.69;1084201;54;20551;-79
2023/06/22 00:58:13;;;;;;;;;;;;;;;22.29;68.73;99836.84;1084311;47;19950;-79
2023/06/22 00:59:18;;;;;;;;;;;;;;;22.28;68.56;99846.09;1084362;54;20591;-81
2023/06/22 01:00:20;;;;;;;;;;;;;;;22.32;68.11;99845.63;1084589;39;20436;-79
2023/06/22 01:01:24;;;;;;;;;;;;;;;22.34;68.02;99849.78;1084226;47;20045;-79
2023/06/22 01:02:25;;;;;;;;;;;;;;;22.39;68.19;99857.25;1084330;54;19975;-79
2023/06/22 01:03:29;;;;;;;;;;;;;;;22.40;67.99;99870.69;1084505;54;19946;-78
2023/06/22 01:04:34;;;;;;;;;;;;;;;22.39;68.18;99873.59;1084402;47;19950;-79
2023/06/22 01:05:39;;;;;;;;;;;;;;;22.41;68.13;99893.31;1084268;47;19953;-78
2023/06/22 01:06:45;;;;;;;;;;;;;;;22.22;69.72;99922.41;1084322;46;19947;-79
2023/06/22 01:07:59;;;;;;;;;;;;;;;22.16;69.98;99961.38;1084666;54;19946;-81
2023/06/22 01:09:02;;;;;;;;;;;;;;;22.09;70.54;99989.50;1084504;47;19954;-83
2023/06/22 01:10:11;;;;;;;;;;;;;;;22.09;70.78;100011.28;1084115;47;19950;-78
2023/06/22 01:11:16;;;;;;;;;;;;;;;22.09;70.74;100016.72;1084456;54;20011;-78
2023/06/22 01:12:21;;;;;;;;;;;;;;;22.15;70.48;100008.75;1084559;54;19950;-82
2023/06/22 01:13:27;;;;;;;;;;;;;;;22.22;70.82;99987.72;1084577;54;20021;-78
2023/06/22 01:14:34;;;;;;;;;;;;;;;22.21;71.22;99959.66;1084543;54;20010;-81
2023/06/22 01:15:39;;;;;;;;;;;;;;;22.16;71.39;99955.94;1084706;54;19954;-79
2023/06/22 01:16:45;;;;;;;;;;;;;;;22.13;71.17;99957.22;1084608;54;19947;-81
2023/06/22 01:17:48;;;;;;;;;;;;;;;22.15;70.94;99957.84;1084870;54;19962;-81
2023/06/22 01:18:53;;;;;;;;;;;;;;;22.15;70.56;99952.41;1084867;47;19954;-80
2023/06/22 01:19:55;;;;;;;;;;;;;;;22.08;70.98;99947.00;1085022;54;19954;-79
2023/06/22 01:20:59;;;;;;;;;;;;;;;22.03;70.81;99935.97;1084846;47;19947;-81
2023/06/22 01:22:01;;;;;;;;;;;;;;;21.92;71.34;99931.25;1085526;54;19977;-81
2023/06/22 01:23:13;;;;;;;;;;;;;;;21.74;72.30;99932.00;1085024;54;19950;-81
2023/06/22 01:24:19;;;;;;;;;;;;;;;21.73;72.55;99924.91;1084949;54;20246;-81
2023/06/22 01:25:28;;;;;;;;;;;;;;;21.72;72.57;99924.09;1084752;54;19980;-78
2023/06/22 01:26:35;;;;;;;;;;;;;;;21.78;72.60;99922.38;1084686;47;19950;-81
2023/06/22 01:27:45;;;;;;;;;;;;;;;21.60;72.86;99923.97;1085244;46;19947;-82
2023/06/22 01:28:50;;;;;;;;;;;;;;;21.52;73.09;99913.34;1084970;54;20006;-79
2023/06/22 01:30:00;;;;;;;;;;;;;;;21.52;73.53;99913.34;1084847;54;19946;-83
2023/06/22 01:31:05;;;;;;;;;;;;;;;21.36;74.60;99901.09;1085269;47;19950;-80
2023/06/22 01:32:09;;;;;;;;;;;;;;;21.33;74.16;99896.09;1085321;47;19949;-79
2023/06/22 01:33:11;;;;;;;;;;;;;;;21.32;74.45;99889.84;1084986;47;19950;-80
2023/06/22 01:34:15;;;;;;;;;;;;;;;21.28;74.86;99885.06;1084865;47;19947;-81
2023/06/22 01:35:17;;;;;;;;;;;;;;;21.35;74.33;99880.41;1085218;54;19977;-79
2023/06/22 01:36:21;;;;;;;;;;;;;;;21.45;73.40;99880.75;1085133;47;19955;-82
2023/06/22 01:37:22;;;;;;;;;;;;;;;21.53;73.00;99882.38;1084688;54;19951;-80
2023/06/22 01:38:29;;;;;;;;;;;;;;;21.61;73.03;99884.84;1085170;54;19951;-79
2023/06/22 01:39:30;;;;;;;;;;;;;;;21.57;73.08;99880.84;1086170;39;20516;-81
2023/06/22 01:40:35;;;;;;;;;;;;;;;21.52;73.21;99880.69;1084986;54;19973;-81
2023/06/22 01:41:37;;;;;;;;;;;;;;;21.30;74.00;99883.78;1085203;47;19972;-79
2023/06/22 01:42:42;;;;;;;;;;;;;;;21.34;74.00;99879.59;1085483;47;19981;-81
2023/06/22 01:43:44;;;;;;;;;;;;;;;21.18;74.56;99874.66;1085537;47;20006;-80
2023/06/22 01:44:53;;;;;;;;;;;;;;;21.22;74.50;99875.88;1085530;54;19946;-82
2023/06/22 01:45:55;;;;;;;;;;;;;;;21.14;74.62;99874.25;1086986;47;19989;-84
2023/06/22 01:46:59;;;;;;;;;;;;;;;21.14;74.63;99873.44;1087172;46;19943;-82
2023/06/22 01:48:00;;;;;;;;;;;;;;;21.13;74.47;99866.34;1087026;47;20054;-84
2023/06/22 01:49:04;;;;;;;;;;;;;;;21.13;74.48;99866.34;1086928;54;19984;-82
2023/06/22 01:50:06;;;;;;;;;;;;;;;21.16;74.35;99861.28;1086722;47;19964;-82
2023/06/22 01:51:10;;;;;;;;;;;;;;;21.23;74.27;99863.13;1090542;39;20128;-83
2023/06/22 01:52:11;;;;;;;;;;;;;;;21.23;73.94;99861.25;1087014;47;19950;-81
2023/06/22 01:53:15;;;;;;;;;;;;;;;21.29;73.31;99854.09;1086731;47;19947;-83
2023/06/22 01:54:15;;;;;;;;;;;;;;;21.35;73.27;99850.50;1086615;54;19960;-82
2023/06/22 01:55:19;;;;;;;;;;;;;;;21.34;73.12;99844.25;1086934;54;19971;-80
2023/06/22 01:56:24;;;;;;;;;;;;;;;21.41;72.52;99851.50;1087013;54;19981;-83
2023/06/22 01:57:27;;;;;;;;;;;;;;;21.44;72.38;99851.06;1086880;47;20583;-82
2023/06/22 01:58:29;;;;;;;;;;;;;;;21.42;72.51;99858.59;1086998;46;20023;-83
2023/06/22 01:59:37;;;;;;;;;;;;;;;21.43;72.78;99857.56;1086932;54;19983;-82
2023/06/22 02:00:44;;;;;;;;;;;;;;;21.50;72.21;99855.59;1086708;47;19954;-84
2023/06/22 02:01:52;;;;;;;;;;;;;;;21.55;71.76;99863.91;1086504;39;20754;-82
2023/06/22 02:02:56;;;;;;;;;;;;;;;21.60;71.86;99872.28;1086883;46;19945;-83
2023/06/22 02:04:06;;;;;;;;;;;;;;;21.61;71.38;99859.50;1086726;46;19969;-80
2023/06/22 02:05:09;;;;;;;;;;;;;;;21.65;71.60;99860.75;1085966;47;19950;-81
2023/06/22 02:06:17;;;;;;;;;;;;;;;21.69;71.28;99858.41;1086234;47;19946;-84
2023/06/22 02:07:23;;;;;;;;;;;;;;;21.65;71.59;99858.03;1086492;54;19946;-83
2023/06/22 02:08:28;;;;;;;;;;;;;;;21.66;71.49;99857.78;1086282;47;20033;-85
2023/06/22 02:09:30;;;;;;;;;;;;;;;21.65;71.30;99856.13;1086377;47;19954;-83
2023/06/22 02:10:34;;;;;;;;;;;;;;;21.59;71.64;99858.91;1089055;39;20512;-84
2023/06/22 02:11:37;;;;;;;;;;;;;;;21.58;71.47;99852.63;1086539;46;19955;-86
2023/06/22 02:12:41;;;;;;;;;;;;;;;21.58;71.59;99849.06;1086492;47;20027;-86
2023/06/22 02:13:43;;;;;;;;;;;;;;;21.56;71.48;99862.88;1085857;47;19947;-83
2023/06/22 02:14:46;;;;;;;;;;;;;;;;;;1084545;47;19966;-82
2023/06/22 02:15:50;;;;;;;;;;;;;;;21.60;71.56;99866.00;1084987;47;20076;-81
2023/06/22 02:16:58;;;;;;;;;;;;;;;21.57;71.51;99859.09;1085049;54;19950;-83
2023/06/22 02:18:00;;;;;;;;;;;;;;;21.44;72.24;99865.47;1085024;47;19950;-80
2023/06/22 02:19:05;;;;;;;;;;;;;;;21.48;71.82;99858.56;1085228;47;19956;-82
2023/06/22 02:20:13;;;;;;;;;;;;;;;21.52;71.88;99864.38;1084717;47;20557;-81
2023/06/22 02:21:17;;;;;;;;;;;;;;;21.57;71.53;99861.81;1084485;47;19973;-81
2023/06/22 02:22:18;;;;;;;;;;;;;;;21.55;71.74;99861.19;1084667;54;20066;-82
2023/06/22 02:23:21;;;;;;;;;;;;;;;21.55;71.47;99863.09;1084642;47;19947;-83
2023/06/22 02:24:23;;;;;;;;;;;;;;;21.56;71.45;99860.16;1084671;54;19954;-82
2023/06/22 02:25:27;;;;;;;;;;;;;;;21.57;71.08;99856.38;1084581;47;19950;-83
2023/06/22 02:26:28;;;;;;;;;;;;;;;21.60;70.94;99860.56;1084590;54;19958;-81
2023/06/22 02:27:32;;;;;;;;;;;;;;;21.64;70.93;99862.63;1084843;54;20000;-82
2023/06/22 02:28:32;;;;;;;;;;;;;;;21.65;70.77;99868.91;1084557;54;19961;-81
2023/06/22 02:29:36;;;;;;;;;;;;;;;21.65;70.84;99858.03;1084437;47;19953;-80
2023/06/22 02:30:37;;;;;;;;;;;;;;;21.61;70.79;99854.94;1085030;47;20558;-80
2023/06/22 02:31:43;;;;;;;;;;;;;;;21.57;71.12;99856.38;1084956;47;19946;-80
2023/06/22 02:32:44;;;;;;;;;;;;;;;21.53;70.96;99860.63;1085272;54;19946;-79
2023/06/22 02:33:48;;;;;;;;;;;;;;;21.51;71.03;99851.84;1084791;47;19947;-81
2023/06/22 02:34:49;;;;;;;;;;;;;;;21.56;70.62;99856.63;1084658;47;19946;-81
2023/06/22 02:35:53;;;;;;;;;;;;;;;21.55;70.75;99853.03;1084723;47;19953;-79
2023/06/22 02:36:56;;;;;;;;;;;;;;;21.51;70.89;99847.22;1084905;47;19973;-80
2023/06/22 02:38:00;;;;;;;;;;;;;;;21.50;71.24;99850.16;1085704;54;19947;-81
2023/06/22 02:39:03;;;;;;;;;;;;;;;21.55;70.58;99842.16;1085650;54;19957;-83
2023/06/22 02:40:09;;;;;;;;;;;;;;;21.57;70.54;99848.22;1085502;47;19987;-80
2023/06/22 02:41:13;;;;;;;;;;;;;;;21.59;70.57;99846.16;1085339;47;20425;-79
2023/06/22 02:42:20;;;;;;;;;;;;;;;21.62;70.61;99837.56;1085622;54;19981;-79
2023/06/22 02:43:21;;;;;;;;;;;;;;;21.65;70.06;99849.88;1085578;54;20082;-80
2023/06/22 02:44:24;;;;;;;;;;;;;;;21.68;70.08;99840.44;1085648;54;20552;-80
2023/06/22 02:45:26;;;;;;;;;;;;;;;21.56;70.39;99846.56;1086022;54;19946;-78
2023/06/22 02:46:30;;;;;;;;;;;;;;;21.50;70.55;99848.28;1086060;47;19950;-81
2023/06/22 02:47:33;;;;;;;;;;;;;;;21.45;70.80;99847.28;1086234;47;19986;-81
2023/06/22 02:48:37;;;;;;;;;;;;;;;21.45;71.34;99852.72;1085285;47;20018;-83
2023/06/22 02:49:39;;;;;;;;;;;;;;;21.30;71.54;99843.00;1085056;47;20533;-82
2023/06/22 02:50:43;;;;;;;;;;;;;;;21.22;72.22;99846.00;1085464;47;19958;-80
2023/06/22 02:51:46;;;;;;;;;;;;;;;21.14;72.31;99840.81;1085515;47;19950;-81
2023/06/22 02:52:50;;;;;;;;;;;;;;;21.17;72.87;99841.22;1085842;46;19954;-79
2023/06/22 02:53:56;;;;;;;;;;;;;;;21.09;72.64;99843.34;1085844;47;19953;-83
2023/06/22 02:54:59;;;;;;;;;;;;;;;21.01;73.17;99836.31;1084825;54;20844;-82
2023/06/22 02:56:02;;;;;;;;;;;;;;;21.01;73.28;99845.28;1085903;54;20903;-82
2023/06/22 02:57:13;;;;;;;;;;;;;;;20.97;73.28;99849.47;1085588;47;19953;-80
2023/06/22 02:58:16;;;;;;;;;;;;;;;20.95;73.33;99848.88;1085702;47;19946;-83
2023/06/22 02:59:23;;;;;;;;;;;;;;;20.95;73.66;99840.75;1085656;47;19948;-82
2023/06/22 03:00:30;;;;;;;;;;;;;;;20.95;73.55;99838.03;1085966;47;20070;-81
2023/06/22 03:01:39;;;;;;;;;;;;;;;21.00;73.37;99831.94;1086077;47;19946;-84
2023/06/22 03:02:45;;;;;;;;;;;;;;;20.96;73.38;99845.13;1086207;47;19954;-82
2023/06/22 03:03:49;;;;;;;;;;;;;;;20.98;73.48;99839.47;1085972;47;19946;-80
2023/06/22 03:04:49;;;;;;;;;;;;;;;21.05;73.36;99840.25;1085611;47;19950;-82
2023/06/22 03:05:53;;;;;;;;;;;;;;;21.07;73.47;99843.59;1085596;54;19946;-80
2023/06/22 03:06:54;;;;;;;;;;;;;;;21.02;72.93;99844.25;1086184;47;19947;-82
2023/06/22 03:07:58;;;;;;;;;;;;;;;21.00;73.36;99840.91;1086018;47;19947;-79
2023/06/22 03:09:00;;;;;;;;;;;;;;;21.05;73.29;99840.25;1085868;47;19977;-81
2023/06/22 03:10:04;;;;;;;;;;;;;;;21.15;72.69;99832.44;1085376;47;19958;-83
2023/06/22 03:11:05;;;;;;;;;;;;;;;21.18;72.72;99831.16;1085694;46;19977;-82
2023/06/22 03:12:09;;;;;;;;;;;;;;;21.23;72.30;99833.22;1085579;46;19950;-79
2023/06/22 03:13:21;;;;;;;;;;;;;;;21.05;73.27;99832.09;1086733;39;20808;-80
2023/06/22 03:14:24;;;;;;;;;;;;;;;21.05;73.54;99832.09;1085774;47;19950;-82
2023/06/22 03:15:29;;;;;;;;;;;;;;;21.06;73.35;99838.38;1087505;39;20216;-82
2023/06/22 03:16:32;;;;;;;;;;;;;;;21.04;73.73;99834.00;1085875;54;20006;-81
2023/06/22 03:17:33;;;;;;;;;;;;;;;20.99;73.55;99827.53;1085481;47;20031;-84
2023/06/22 03:18:40;;;;;;;;;;;;;;;20.97;74.01;99829.63;1085778;47;19957;-79
2023/06/22 03:19:40;;;;;;;;;;;;;;;20.91;73.93;99828.63;1085848;47;20184;-78
2023/06/22 03:20:44;;;;;;;;;;;;;;;20.94;74.06;99825.47;1086261;39;20399;-79
2023/06/22 03:21:45;;;;;;;;;;;;;;;20.99;73.62;99825.66;1085736;47;19946;-79
2023/06/22 03:22:49;;;;;;;;;;;;;;;20.91;73.94;99819.66;1085498;47;20030;-80
2023/06/22 03:23:49;;;;;;;;;;;;;;;20.86;73.98;99825.75;1085528;54;19950;-81
2023/06/22 03:24:53;;;;;;;;;;;;;;;20.80;74.49;99829.31;1086225;54;19943;-83
2023/06/22 03:25:55;;;;;;;;;;;;;;;20.79;74.62;99828.50;1086534;46;20091;-83
2023/06/22 03:27:00;;;;;;;;;;;;;;;20.82;74.52;99828.06;1085949;47;19953;-82
2023/06/22 03:28:00;;;;;;;;;;;;;;;20.85;74.14;99818.66;1085757;54;19950;-82
2023/06/22 03:29:04;;;;;;;;;;;;;;;20.78;74.49;99821.41;1085885;47;19980;-81
2023/06/22 03:30:07;;;;;;;;;;;;;;;20.77;74.67;99824.34;1085830;47;19946;-83
2023/06/22 03:31:11;;;;;;;;;;;;;;;20.77;74.84;99816.19;1086083;39;20713;-81
2023/06/22 03:32:14;;;;;;;;;;;;;;;20.77;74.67;99808.03;1085712;54;19970;-80
2023/06/22 03:33:19;;;;;;;;;;;;;;;20.74;74.99;99809.28;1085718;54;19958;-80
2023/06/22 03:34:22;;;;;;;;;;;;;;;20.75;75.19;99805.53;1085732;47;19966;-81
2023/06/22 03:35:29;;;;;;;;;;;;;;;20.79;74.58;99812.19;1085560;47;20572;-83
2023/06/22 03:36:33;;;;;;;;;;;;;;;20.87;74.64;99814.66;1086214;47;20029;-84
2023/06/22 03:37:39;;;;;;;;;;;;;;;20.92;74.05;99815.91;1086313;46;19946;-83
2023/06/22 03:38:39;;;;;;;;;;;;;;;20.90;74.17;99812.56;1087114;47;19946;-85
2023/06/22 03:39:43;;;;;;;;;;;;;;;20.84;74.63;99814.25;1087676;39;20514;-84
2023/06/22 03:40:44;;;;;;;;;;;;;;;20.92;74.24;99807.75;1086227;54;19947;-84
2023/06/22 03:41:47;;;;;;;;;;;;;;;20.90;74.33;99813.38;1086710;47;19974;-83
2023/06/22 03:42:48;;;;;;;;;;;;;;;20.95;73.93;99808.13;1086631;46;19938;-84
2023/06/22 03:43:52;;;;;;;;;;;;;;;20.94;74.08;99809.19;1086036;54;19951;-82
2023/06/22 03:44:53;;;;;;;;;;;;;;;20.87;74.72;99814.66;1086676;39;20682;-81
2023/06/22 03:45:56;;;;;;;;;;;;;;;20.83;75.12;99807.16;1085422;47;19974;-80
2023/06/22 03:46:57;;;;;;;;;;;;;;;20.77;75.27;99806.13;1085309;54;19958;-80
2023/06/22 03:48:00;;;;;;;;;;;;;;;20.81;75.11;99801.09;1085847;54;19947;-79
2023/06/22 03:49:03;;;;;;;;;;;;;;;20.82;74.92;99811.78;1086808;47;20021;-84
2023/06/22 03:50:09;;;;;;;;;;;;;;;20.86;74.86;99807.56;1086586;47;19942;-83
2023/06/22 03:51:10;;;;;;;;;;;;;;;20.91;74.48;99808.78;1086185;54;19951;-81
2023/06/22 03:52:13;;;;;;;;;;;;;;;20.98;73.79;99815.81;1087992;39;20274;-82
2023/06/22 03:53:15;;;;;;;;;;;;;;;21.01;74.12;99809.97;1090591;39;20198;-85
2023/06/22 03:54:18;;;;;;;;;;;;;;;21.07;73.70;99815.56;1086555;47;19977;-82
2023/06/22 03:55:20;;;;;;;;;;;;;;;21.12;73.51;99813.03;1086730;39;20356;-83
2023/06/22 03:56:23;;;;;;;;;;;;;;;21.12;73.52;99810.31;1086723;47;19946;-82
2023/06/22 03:57:25;;;;;;;;;;;;;;;21.15;72.99;99818.84;1086179;54;20006;-80
2023/06/22 03:58:32;;;;;;;;;;;;;;;21.16;73.19;99812.38;1086775;46;19986;-83
2023/06/22 03:59:36;;;;;;;;;;;;;;;21.15;72.72;99816.13;1086034;47;19946;-78
2023/06/22 04:00:40;;;;;;;;;;;;;;;21.13;73.23;99811.97;1086034;54;19994;-83
2023/06/22 04:01:41;;;;;;;;;;;;;;;21.09;73.58;99811.59;1085484;54;19977;-84
2023/06/22 04:02:45;;;;;;;;;;;;;;;21.02;73.39;99811.63;1086256;54;19947;-83
2023/06/22 04:03:48;;;;;;;;;;;;;;;21.02;73.70;99805.34;1086463;54;20053;-80
2023/06/22 04:04:52;;;;;;;;;;;;;;;21.06;73.40;99805.78;1087147;54;20017;-82
2023/06/22 04:05:56;;;;;;;;;;;;;;;21.07;73.40;99807.41;1087522;39;20569;-81
2023/06/22 04:06:59;;;;;;;;;;;;;;;21.13;73.37;99801.09;1087621;47;19954;-84
2023/06/22 04:08:00;;;;;;;;;;;;;;;21.00;73.39;99808.28;1087796;47;19947;-86
2023/06/22 04:09:05;;;;;;;;;;;;;;;20.98;73.83;99809.56;1087586;47;19942;-88
2023/06/22 04:10:06;;;;;;;;;;;;;;;20.97;73.82;99808.72;1089466;39;20483;-83
2023/06/22 04:11:09;;;;;;;;;;;;;;;20.98;73.70;99804.97;1087408;54;19950;-81
2023/06/22 04:12:10;;;;;;;;;;;;;;;20.97;73.61;99806.00;1087542;54;19950;-82
2023/06/22 04:13:13;;;;;;;;;;;;;;;21.04;73.69;99809.53;1087541;47;19939;-82
2023/06/22 04:14:14;;;;;;;;;;;;;;;21.12;73.00;99808.41;1087387;47;19994;-83
2023/06/22 04:15:18;;;;;;;;;;;;;;;21.13;73.45;99807.38;1087211;47;19946;-84
2023/06/22 04:16:19;;;;;;;;;;;;;;;21.17;72.96;99802.31;1087303;54;19943;-82
2023/06/22 04:17:24;;;;;;;;;;;;;;;21.19;73.05;99805.66;1086804;47;20086;-79
2023/06/22 04:18:26;;;;;;;;;;;;;;;21.24;72.70;99802.28;1087632;54;19958;-85
2023/06/22 04:19:29;;;;;;;;;;;;;;;21.27;72.94;99810.00;1088050;46;19942;-83
2023/06/22 04:20:31;;;;;;;;;;;;;;;21.25;73.22;99801.22;1087457;47;19958;-82
2023/06/22 04:21:37;;;;;;;;;;;;;;;21.29;73.03;99792.41;1085975;47;19951;-79
2023/06/22 04:22:38;;;;;;;;;;;;;;;21.32;72.70;99791.97;1085781;47;19950;-79
2023/06/22 04:23:42;;;;;;;;;;;;;;;21.34;72.89;99792.59;1086072;54;19943;-83
2023/06/22 04:24:44;;;;;;;;;;;;;;;21.38;72.63;99789.41;1087032;47;19954;-81
2023/06/22 04:25:47;;;;;;;;;;;;;;;21.42;72.52;99793.34;1086311;47;19938;-79
2023/06/22 04:26:48;;;;;;;;;;;;;;;21.41;72.60;99792.50;1087086;47;19938;-83
2023/06/22 04:29:08;;;;;;;;;;;;;;;21.41;72.73;99797.13;1086991;47;19951;-82
2023/06/22 04:30:10;;;;;;;;;;;;;;;21.33;73.31;99796.34;1086239;47;19950;-82
2023/06/22 04:31:14;;;;;;;;;;;;;;;21.29;73.40;99795.13;1086142;49;19947;-81
2023/06/22 04:32:15;;;;;;;;;;;;;;;21.30;73.58;99801.41;1086658;39;20700;-81
2023/06/22 04:33:19;;;;;;;;;;;;;;;21.25;73.85;99804.78;1086437;54;19947;-83
2023/06/22 04:34:20;;;;;;;;;;;;;;;21.23;73.94;99801.44;1086779;47;19950;-82
2023/06/22 04:35:25;;;;;;;;;;;;;;;21.17;74.13;99797.72;1086239;47;19939;-81
2023/06/22 04:36:30;;;;;;;;;;;;;;;21.17;73.94;99786.84;1086227;54;19950;-81
2023/06/22 04:37:37;;;;;;;;;;;;;;;21.20;73.86;99796.44;1085963;46;19942;-81
2023/06/22 04:38:42;;;;;;;;;;;;;;;21.27;73.65;99790.97;1086456;46;19946;-81
2023/06/22 04:39:43;;;;;;;;;;;;;;;21.29;73.27;99789.69;1086440;47;19966;-83
2023/06/22 04:40:47;;;;;;;;;;;;;;;21.32;73.53;99791.97;1086597;46;19999;-80
2023/06/22 04:41:48;;;;;;;;;;;;;;;21.33;73.16;99801.78;1087842;54;19942;-82
2023/06/22 04:42:54;;;;;;;;;;;;;;;21.38;73.17;99792.97;1087712;46;19994;-81
2023/06/22 04:43:59;;;;;;;;;;;;;;;21.41;72.59;99786.25;1087515;54;19991;-83
2023/06/22 04:46:19;;;;;;;;;;;;;;;21.41;72.69;99786.25;1087067;46;19950;-85
2023/06/22 04:47:22;;;;;;;;;;;;;;;21.37;73.46;99790.47;1087197;46;19957;-87
2023/06/22 04:48:23;;;;;;;;;;;;;;;21.44;73.08;99791.25;1087493;46;20018;-83
2023/06/22 04:49:32;;;;;;;;;;;;;;;21.49;72.79;99783.25;1087679;54;19950;-82
2023/06/22 04:50:40;;;;;;;;;;;;;;;21.51;72.40;99787.41;1087976;47;19943;-86
2023/06/22 04:51:41;;;;;;;;;;;;;;;21.57;72.25;99784.84;1087451;46;19973;-83
2023/06/22 04:52:48;;;;;;;;;;;;;;;21.50;72.87;99774.84;1087437;54;19971;-79
2023/06/22 04:53:49;;;;;;;;;;;;;;;21.49;72.58;99780.53;1087525;54;20001;-84
2023/06/22 04:54:55;;;;;;;;;;;;;;;21.53;72.78;99775.47;1087521;54;19950;-83
2023/06/22 04:55:59;;;;;;;;;;;;;;;21.60;72.31;99773.53;1087251;47;19935;-77
2023/06/22 04:57:00;;;;;;;;;;;;;;;21.64;72.13;99774.78;1087515;39;20347;-80
2023/06/22 04:58:04;;;;;;;;;;;;;;;21.68;71.97;99777.88;1086760;46;20069;-85
2023/06/22 04:59:07;;;;;;;;;;;;;;;21.73;72.13;99773.41;1086384;47;20065;-83
2023/06/22 05:00:16;;;;;;;;;;;;;;;21.77;71.83;99771.06;1086383;54;20468;-82
2023/06/22 05:01:17;;;;;;;;;;;;;;;21.78;71.82;99772.75;1086348;54;19957;-79
2023/06/22 05:02:21;;;;;;;;;;;;;;;21.79;71.55;99771.69;1086431;54;19983;-80
2023/06/22 05:03:25;;;;;;;;;;;;;;;21.84;71.55;99773.75;1086383;54;19995;-79
2023/06/22 05:04:31;;;;;;;;;;;;;;;21.87;71.31;99773.28;1085819;47;19946;-80
2023/06/22 05:05:35;;;;;;;;;;;;;;;21.83;71.46;99778.31;1086692;47;19942;-82
2023/06/22 05:06:35;;;;;;;;;;;;;;;21.86;71.45;99782.50;1086336;54;19958;-81
2023/06/22 05:07:39;;;;;;;;;;;;;;;21.85;71.58;99781.66;1086783;54;19949;-80
2023/06/22 05:08:43;;;;;;;;;;;;;;;21.84;71.61;99774.56;1086538;54;19969;-80
2023/06/22 05:09:47;;;;;;;;;;;;;;;21.87;71.64;99773.28;1086835;54;19951;-78
2023/06/22 05:10:50;;;;;;;;;;;;;;;21.89;71.56;99771.16;1086797;47;19967;-78
2023/06/22 05:11:51;;;;;;;;;;;;;;;21.89;71.77;99771.16;1086725;54;20044;-80
2023/06/22 05:12:54;;;;;;;;;;;;;;;21.88;71.63;99781.22;1086601;54;19972;-81
2023/06/22 05:13:55;;;;;;;;;;;;;;;21.88;71.62;99770.34;1086823;47;19938;-81
2023/06/22 05:14:59;;;;;;;;;;;;;;;21.83;71.86;99769.34;1086707;54;19968;-82
2023/06/22 05:16:01;;;;;;;;;;;;;;;21.88;71.25;99764.91;1087138;54;19942;-81
2023/06/22 05:17:13;;;;;;;;;;;;;;;21.84;71.49;99768.28;1086808;47;19938;-80
2023/06/22 05:18:16;;;;;;;;;;;;;;;21.89;71.24;99760.28;1089212;39;20293;-82
2023/06/22 05:19:17;;;;;;;;;;;;;;;21.84;71.25;99763.66;1087207;39;20355;-82
2023/06/22 05:20:21;;;;;;;;;;;;;;;21.89;71.05;99760.28;1086735;54;19957;-80
2023/06/22 05:21:23;;;;;;;;;;;;;;;21.88;71.09;99766.75;1087200;39;20441;-82
2023/06/22 05:22:26;;;;;;;;;;;;;;;21.90;71.18;99762.78;1087003;54;19951;-80
2023/06/22 05:23:27;;;;;;;;;;;;;;;21.95;71.06;99754.75;1087037;54;19998;-82
2023/06/22 05:24:33;;;;;;;;;;;;;;;21.97;70.84;99755.38;1086893;47;19942;-80
2023/06/22 05:25:34;;;;;;;;;;;;;;;22.05;70.77;99753.41;1086781;47;19947;-84
2023/06/22 05:26:37;;;;;;;;;;;;;;;22.05;70.79;99748.81;1087080;54;19977;-83
2023/06/22 05:27:39;;;;;;;;;;;;;;;22.11;70.42;99750.59;1086867;54;19945;-81
2023/06/22 05:28:45;;;;;;;;;;;;;;;22.10;70.66;99756.28;1086150;54;20041;-82
2023/06/22 05:29:50;;;;;;;;;;;;;;;22.16;70.26;99741.75;1085867;54;19950;-78
2023/06/22 05:30:51;;;;;;;;;;;;;;;22.20;70.24;99748.38;1086387;54;19938;-79
2023/06/22 05:31:56;;;;;;;;;;;;;;;22.25;70.18;99747.69;1086347;54;19974;-81
2023/06/22 05:32:57;;;;;;;;;;;;;;;22.28;69.54;99753.53;1085929;47;19976;-79
2023/06/22 05:34:03;;;;;;;;;;;;;;;22.33;69.52;99746.56;1086513;54;19977;-83